CYXT

Terrace Airport

Terrace, , Canada
TAF CYXT 181238Z 1813/1901 01010G20KT P6SM SCT080 OVC220 RMK NXT FCST BY 181900Z
Issued Valid From Valid To
Sep-18 @ 12:38 UTC
(5 hours ago)
Sep-18 @ 13:00 UTC
(5 hours ago)
Sep-19 @ 01:00 UTC
(in 7 hours)
Sep-18 @ 13:00 to Sep-19 @ 01:00
TAF CYXT 181238Z 1813/1901 01010G20KT P6SM SCT080 OVC220 RMK NXT FCST BY 181900Z
Wind Visibility Clouds
10° at 10 knots
 Gusting to 20 knots
Greater than 6 miles
  • Scattered at 8,000' AGL
  • Overcast at 22,000' AGL
TAF CYXT 181238Z 1813/1901 01010G20KT P6SM SCT080 OVC220 RMK NXT FCST BY 181900Z
Issued Sep-18 @ 12:38 UTC
(5 hours ago)
Valid From Sep-18 @ 13:00 UTC
(5 hours ago)
Valid To Sep-19 @ 01:00 UTC
(in 7 hours)
Sep-18 @ 13:00 - Sep-19 @ 01:00
Wind Visibility
10° at 10 knots
 Gusting to 20 knots
Greater than 6 miles
Clouds
  • Scattered at 8,000' AGL
  • Overcast at 22,000' AGL